Terminal Aerodrome Forecast
Issued by NWS Rapid City, SD

Home | Current Version | Previous Version | Text Only | Print | Product List | Glossary Off
Versions: 1 2 3 4 5 6 7 8 9 10 11 12 13 14 15 16 17 18 19 20 21 22

000
FTUS43 KUNR 151700
TAFRAP
TAF
KRAP 151720Z 1518/1618 34031G42KT 6SM BLSN OVC045
     FM152300 34015G25KT P6SM BKN060
     FM160600 34006KT P6SM FEW250=

USA.gov is the U.S. government's official web portal to all federal, state and local government web resources and services.